Time;durP1;ratioP1;P1;durP2;ratioP2;P2;SDS_P1;SDS_P2;PMS_P1;PMS_P2;Temp;Humidity;BMP_temperature;BMP_pressure;BME280_temperature;BME280_humidity;BME280_pressure;Samples;Min_cycle;Max_cycle;Signal;HPM_P1;HPM_P2
2022/02/09 00:00:13;;;;;;;5.77;4.73;;;;;;;;;;4997646;28;20831;-66
2022/02/09 00:03:00;;;;;;;6.38;4.70;;;;;;;;;;4998648;28;20533;-65
2022/02/09 00:08:00;;;;;;;5.80;4.87;;;;;;;;;;4992903;28;20083;-65
2022/02/09 00:10:28;;;;;;;6.65;5.35;;;;;;;;;;4983388;28;20470;-65
2022/02/09 00:13:11;;;;;;;5.68;4.25;;;;;;;;;;4998753;28;20088;-65
2022/02/09 00:15:47;;;;;;;31.50;13.70;;;;;;;;;;4992869;28;20090;-65
2022/02/09 00:37:15;;;;;;;7.55;4.22;;;;;;;;;;4990562;28;20563;-65
2022/02/09 00:40:28;;;;;;;5.35;4.22;;;;;;;;;;4996690;28;20574;-65
2022/02/09 00:58:59;;;;;;;6.60;4.10;;;;;;;;;;4985301;28;20149;-65
2022/02/09 01:33:10;;;;;;;6.85;3.90;;;;;;;;;;4973048;28;20595;-65
2022/02/09 01:39:43;;;;;;;6.10;5.00;;;;;;;;;;4994852;28;20125;-65
2022/02/09 01:55:50;;;;;;;7.13;5.35;;;;;;;;;;4994882;28;20223;-65
2022/02/09 01:58:15;;;;;;;6.88;4.85;;;;;;;;;;4995161;28;20095;-65
2022/02/09 02:00:40;;;;;;;7.20;5.40;;;;;;;;;;4994652;28;20101;-65
2022/02/09 02:03:06;;;;;;;5.83;4.47;;;;;;;;;;4999510;28;20637;-65
2022/02/09 02:05:31;;;;;;;6.47;4.95;;;;;;;;;;4997718;28;20786;-65
2022/02/09 02:08:00;;;;;;;5.47;4.17;;;;;;;;;;4992203;28;20087;-65
2022/02/09 02:10:38;;;;;;;6.00;4.70;;;;;;;;;;4997902;28;20325;-65
2022/02/09 02:13:32;;;;;;;7.35;5.95;;;;;;;;;;5001410;28;20153;-65
2022/02/09 02:18:38;;;;;;;7.32;5.53;;;;;;;;;;5001456;28;20141;-66
2022/02/09 02:26:44;;;;;;;6.10;4.53;;;;;;;;;;4998738;28;20097;-65
2022/02/09 02:56:43;;;;;;;6.60;4.60;;;;;;;;;;4989148;28;20609;-65
2022/02/09 03:12:58;;;;;;;7.38;5.15;;;;;;;;;;4996579;28;20089;-65
2022/02/09 03:17:39;;;;;;;8.30;5.65;;;;;;;;;;4977969;28;20099;-65
2022/02/09 03:23:16;;;;;;;6.32;4.70;;;;;;;;;;4985887;28;19992;-65
2022/02/09 03:26:49;;;;;;;7.22;5.45;;;;;;;;;;4966159;28;20528;-65
2022/02/09 03:31:29;;;;;;;8.70;5.60;;;;;;;;;;4985966;28;20105;-66
2022/02/09 03:57:47;;;;;;;9.43;5.70;;;;;;;;;;5016575;28;20134;-66
2022/02/09 04:00:16;;;;;;;11.15;6.93;;;;;;;;;;5019031;28;20140;-65
2022/02/09 04:02:48;;;;;;;8.48;6.10;;;;;;;;;;5007923;28;20109;-65
2022/02/09 04:05:15;;;;;;;9.15;6.38;;;;;;;;;;5018669;28;20429;-66
2022/02/09 04:07:40;;;;;;;9.57;6.90;;;;;;;;;;5018185;28;20097;-65
2022/02/09 04:10:08;;;;;;;10.23;7.13;;;;;;;;;;5016575;28;20579;-66
2022/02/09 04:12:54;;;;;;;10.33;7.53;;;;;;;;;;5018665;28;20108;-65
2022/02/09 04:15:30;;;;;;;8.90;6.18;;;;;;;;;;5003718;28;20105;-66
2022/02/09 04:39:20;;;;;;;13.43;6.37;;;;;;;;;;5003967;28;20434;-65
2022/02/09 04:47:18;;;;;;;12.45;7.00;;;;;;;;;;4991380;28;20345;-65
2022/02/09 04:52:36;;;;;;;8.93;7.07;;;;;;;;;;5003524;28;20145;-65
2022/02/09 04:55:23;;;;;;;9.45;6.53;;;;;;;;;;4998116;28;20268;-65
2022/02/09 04:57:56;;;;;;;11.52;6.57;;;;;;;;;;4998374;28;20193;-65
2022/02/09 05:00:35;;;;;;;8.77;6.10;;;;;;;;;;4998427;28;20097;-65
2022/02/09 05:20:11;;;;;;;10.27;6.82;;;;;;;;;;5002483;28;20415;-65
2022/02/09 05:29:17;;;;;;;10.40;6.07;;;;;;;;;;5002193;28;20630;-65
2022/02/09 05:31:43;;;;;;;8.33;6.30;;;;;;;;;;5002578;28;20074;-65
2022/02/09 05:34:11;;;;;;;11.07;6.73;;;;;;;;;;4990931;28;20125;-65
2022/02/09 05:36:37;;;;;;;10.65;7.20;;;;;;;;;;5001291;28;20090;-65
2022/02/09 05:39:02;;;;;;;13.33;7.17;;;;;;;;;;5002149;28;20098;-65
2022/02/09 05:41:27;;;;;;;7.65;5.50;;;;;;;;;;4993896;28;20149;-65
2022/02/09 05:43:52;;;;;;;8.57;5.20;;;;;;;;;;4996128;28;20070;-65
2022/02/09 05:51:23;;;;;;;9.90;6.22;;;;;;;;;;4996410;28;20622;-65
2022/02/09 06:01:35;;;;;;;8.15;5.85;;;;;;;;;;5002000;28;20557;-65
2022/02/09 06:04:00;;;;;;;10.18;7.05;;;;;;;;;;5001735;28;20117;-65
2022/02/09 06:06:25;;;;;;;9.38;7.30;;;;;;;;;;4988842;28;20145;-65
2022/02/09 06:08:50;;;;;;;10.87;6.20;;;;;;;;;;5001055;28;20097;-65
2022/02/09 06:21:57;;;;;;;12.73;7.85;;;;;;;;;;5001640;28;20392;-65
2022/02/09 06:24:22;;;;;;;8.13;5.65;;;;;;;;;;4989031;28;20086;-65
2022/02/09 06:26:49;;;;;;;7.38;5.22;;;;;;;;;;4998510;28;20597;-65
2022/02/09 06:29:14;;;;;;;8.83;5.93;;;;;;;;;;4988552;28;20175;-65
2022/02/09 06:31:40;;;;;;;11.80;6.80;;;;;;;;;;5013222;28;20438;-65
2022/02/09 06:34:05;;;;;;;10.80;6.72;;;;;;;;;;4988808;28;20487;-65
2022/02/09 06:36:35;;;;;;;8.70;6.93;;;;;;;;;;5003786;28;20098;-65
2022/02/09 06:39:05;;;;;;;10.73;7.22;;;;;;;;;;4996518;28;20168;-65
2022/02/09 06:41:30;;;;;;;10.10;7.28;;;;;;;;;;4986429;28;20678;-65
2022/02/09 06:43:55;;;;;;;11.07;7.33;;;;;;;;;;4995363;28;20081;-65
2022/02/09 06:46:21;;;;;;;11.47;6.77;;;;;;;;;;5005494;28;20338;-65
2022/02/09 06:48:46;;;;;;;10.57;7.20;;;;;;;;;;4994597;28;20070;-65
2022/02/09 06:51:15;;;;;;;17.83;11.33;;;;;;;;;;4999471;28;20299;-65
2022/02/09 06:53:59;;;;;;;;;;;;;;;;;;4996916;28;20103;-65
2022/02/09 06:56:39;;;;;;;8.00;5.75;;;;;;;;;;5015070;28;20013;-65
2022/02/09 06:59:28;;;;;;;16.35;11.85;;;;;;;;;;5010793;28;20155;-65
2022/02/09 07:01:53;;;;;;;11.65;6.75;;;;;;;;;;4981740;28;20157;-65
2022/02/09 07:04:18;;;;;;;15.97;12.50;;;;;;;;;;5007034;28;20755;-65
2022/02/09 07:06:43;;;;;;;9.30;6.70;;;;;;;;;;4988265;28;20106;-65
2022/02/09 07:09:09;;;;;;;12.90;9.63;;;;;;;;;;5012361;28;20078;-65
2022/02/09 07:11:34;;;;;;;13.00;9.50;;;;;;;;;;4993793;28;20067;-65
2022/02/09 07:13:59;;;;;;;11.67;8.30;;;;;;;;;;5010989;28;20135;-65
2022/02/09 07:16:25;;;;;;;13.80;10.93;;;;;;;;;;4989487;28;20090;-65
2022/02/09 07:18:51;;;;;;;12.05;7.30;;;;;;;;;;4994837;28;20106;-65
2022/02/09 07:21:22;;;;;;;13.45;7.70;;;;;;;;;;4993956;28;20258;-66
2022/02/09 07:23:52;;;;;;;12.57;8.25;;;;;;;;;;5004321;28;20442;-65
2022/02/09 07:26:21;;;;;;;12.98;7.88;;;;;;;;;;4989002;28;20482;-65
2022/02/09 07:28:46;;;;;;;13.30;10.23;;;;;;;;;;4997497;28;20559;-65
2022/02/09 07:31:12;;;;;;;13.70;8.23;;;;;;;;;;5006011;28;20106;-65
2022/02/09 07:33:38;;;;;;;12.82;8.23;;;;;;;;;;4995417;28;20106;-65
2022/02/09 07:36:03;;;;;;;13.23;10.27;;;;;;;;;;5009192;28;20097;-65
2022/02/09 07:38:29;;;;;;;9.73;7.00;;;;;;;;;;5000503;28;20213;-65
2022/02/09 07:40:58;;;;;;;12.60;7.83;;;;;;;;;;4995754;28;20535;-65
2022/02/09 07:43:28;;;;;;;;;;;;;;;;;;4987848;28;20469;-65
2022/02/09 07:48:41;;;;;;;10.87;7.53;;;;;;;;;;4992144;28;20087;-65
2022/02/09 07:56:15;;;;;;;11.57;8.32;;;;;;;;;;4989979;28;20511;-65
2022/02/09 07:58:40;;;;;;;13.25;8.52;;;;;;;;;;4985445;28;20122;-65
2022/02/09 08:01:05;;;;;;;12.23;7.77;;;;;;;;;;4994767;28;20488;-65
2022/02/09 08:03:31;;;;;;;10.33;7.83;;;;;;;;;;4999415;28;20554;-65
2022/02/09 08:05:56;;;;;;;10.02;5.68;;;;;;;;;;4999675;28;20126;-65
2022/02/09 08:08:22;;;;;;;9.30;6.77;;;;;;;;;;4998639;28;20151;-65
2022/02/09 08:10:53;;;;;;;12.73;8.70;;;;;;;;;;5004728;28;20119;-65
2022/02/09 08:29:19;;;;;;;12.73;7.93;;;;;;;;;;4999781;28;20238;-65
2022/02/09 08:31:58;;;;;;;12.02;7.93;;;;;;;;;;4999058;28;20079;-65
2022/02/09 08:34:24;;;;;;;16.25;8.32;;;;;;;;;;4985417;28;20368;-65
2022/02/09 08:36:49;;;;;;;11.73;7.67;;;;;;;;;;4998615;28;20163;-65
2022/02/09 08:39:14;;;;;;;10.82;8.15;;;;;;;;;;4995610;28;20102;-65
2022/02/09 08:41:40;;;;;;;7.43;5.67;;;;;;;;;;4995714;28;20117;-65
2022/02/09 08:44:06;;;;;;;9.97;6.13;;;;;;;;;;4995451;28;20076;-65
2022/02/09 08:46:32;;;;;;;11.40;7.53;;;;;;;;;;4997142;28;20773;-65
2022/02/09 08:48:57;;;;;;;11.53;7.13;;;;;;;;;;4992064;28;20157;-65
2022/02/09 08:51:24;;;;;;;9.60;7.13;;;;;;;;;;4991050;28;20083;-65
2022/02/09 08:53:49;;;;;;;9.73;7.25;;;;;;;;;;4992812;28;20356;-65
2022/02/09 08:56:15;;;;;;;8.70;6.20;;;;;;;;;;4991030;28;20086;-65
2022/02/09 08:58:43;;;;;;;7.63;6.03;;;;;;;;;;4994833;28;20102;-65
2022/02/09 09:01:21;;;;;;;11.60;7.13;;;;;;;;;;4998042;28;20375;-65
2022/02/09 09:03:50;;;;;;;10.00;7.43;;;;;;;;;;4992203;28;20070;-69
2022/02/09 09:06:20;;;;;;;;;;;;;;;;;;5005787;28;20098;-69
2022/02/09 09:09:00;;;;;;;12.77;5.82;;;;;;;;;;5005704;28;19974;-69
2022/02/09 09:17:51;;;;;;;7.30;5.38;;;;;;;;;;4995991;28;20109;-67
2022/02/09 10:34:28;;;;;;;9.77;6.90;;;;;;;;;;4962208;28;20169;-70
2022/02/09 10:36:56;;;;;;;8.07;6.03;;;;;;;;;;4971823;28;20099;-72
2022/02/09 10:39:48;;;;;;;9.15;5.80;;;;;;;;;;4977525;28;20115;-73
2022/02/09 10:42:23;;;;;;;8.43;5.75;;;;;;;;;;5003348;28;20653;-72
2022/02/09 10:44:54;;;;;;;8.10;4.38;;;;;;;;;;5021264;28;20076;-71
2022/02/09 10:47:20;;;;;;;11.27;6.07;;;;;;;;;;5021032;28;20179;-71
2022/02/09 10:50:05;;;;;;;11.00;5.70;;;;;;;;;;5021333;28;20094;-73
2022/02/09 10:52:34;;;;;;;8.63;5.07;;;;;;;;;;5019825;28;20438;-71
2022/02/09 10:54:59;;;;;;;10.98;6.70;;;;;;;;;;4989316;28;20134;-73
2022/02/09 10:57:24;;;;;;;10.73;5.07;;;;;;;;;;4969241;28;20497;-71
2022/02/09 10:59:49;;;;;;;9.33;5.73;;;;;;;;;;4976811;28;20090;-70
2022/02/09 11:02:15;;;;;;;8.27;5.57;;;;;;;;;;4975037;28;20126;-72
2022/02/09 11:04:40;;;;;;;8.10;5.60;;;;;;;;;;4987746;28;20306;-71
2022/02/09 11:07:05;;;;;;;4.90;3.70;;;;;;;;;;4979818;28;20409;-71
2022/02/09 11:09:31;;;;;;;10.15;6.38;;;;;;;;;;4989645;28;20109;-71
2022/02/09 11:11:56;;;;;;;5.67;3.97;;;;;;;;;;5010875;28;20470;-71
2022/02/09 11:14:23;;;;;;;10.10;6.97;;;;;;;;;;4982244;28;20492;-71
2022/02/09 11:16:52;;;;;;;9.77;4.72;;;;;;;;;;4985836;28;20103;-71
2022/02/09 11:19:18;;;;;;;7.07;4.72;;;;;;;;;;4993087;28;20951;-72
2022/02/09 11:21:49;;;;;;;8.40;5.28;;;;;;;;;;5002593;28;20498;-71
2022/02/09 11:24:15;;;;;;;8.75;4.65;;;;;;;;;;4998395;28;20571;-71
2022/02/09 11:26:52;;;;;;;7.53;4.55;;;;;;;;;;4988296;28;20130;-73
2022/02/09 11:29:28;;;;;;;6.65;4.72;;;;;;;;;;4997255;28;20102;-72
2022/02/09 11:32:11;;;;;;;8.48;5.47;;;;;;;;;;4992792;28;20082;-71
2022/02/09 11:34:48;;;;;;;6.38;4.45;;;;;;;;;;4988312;28;20101;-73
2022/02/09 11:37:14;;;;;;;9.27;6.32;;;;;;;;;;4996313;28;20102;-72
2022/02/09 11:39:43;;;;;;;7.25;4.82;;;;;;;;;;5003054;28;20097;-72
2022/02/09 11:42:51;;;;;;;6.30;3.83;;;;;;;;;;4991125;28;20168;-72
2022/02/09 11:45:39;;;;;;;8.43;4.45;;;;;;;;;;4985567;28;20129;-72
2022/02/09 11:48:37;;;;;;;7.78;5.07;;;;;;;;;;4993686;28;20078;-73
2022/02/09 11:58:58;;;;;;;6.47;4.37;;;;;;;;;;4998968;28;20103;-71
2022/02/09 12:01:39;;;;;;;5.50;4.00;;;;;;;;;;4989694;28;20106;-71
2022/02/09 12:12:01;;;;;;;7.43;4.80;;;;;;;;;;5004931;28;20570;-72
2022/02/09 12:14:32;;;;;;;;;;;;;;;;;;4996492;28;20145;-71
2022/02/09 12:19:50;;;;;;;7.55;4.90;;;;;;;;;;5000125;28;20089;-71
2022/02/09 12:22:17;;;;;;;8.90;5.00;;;;;;;;;;4995912;28;20104;-72
2022/02/09 12:24:42;;;;;;;10.98;6.50;;;;;;;;;;5005375;28;20070;-71
2022/02/09 12:27:08;;;;;;;7.03;4.87;;;;;;;;;;4995372;28;20241;-71
2022/02/09 12:29:37;;;;;;;7.45;4.18;;;;;;;;;;5010670;28;20110;-70
2022/02/09 12:32:20;;;;;;;7.65;4.72;;;;;;;;;;4997035;28;20101;-70
2022/02/09 12:35:05;;;;;;;6.93;4.80;;;;;;;;;;4983987;28;20098;-73
2022/02/09 12:37:32;;;;;;;8.15;4.50;;;;;;;;;;4997038;28;20094;-71
2022/02/09 12:39:58;;;;;;;7.40;3.80;;;;;;;;;;4984429;28;20144;-70
2022/02/09 12:42:27;;;;;;;10.27;4.80;;;;;;;;;;4990471;28;20112;-72
2022/02/09 12:44:56;;;;;;;7.85;4.43;;;;;;;;;;5008356;28;20509;-72
2022/02/09 12:47:22;;;;;;;8.48;4.43;;;;;;;;;;4990216;28;20085;-71
2022/02/09 12:49:47;;;;;;;6.90;3.67;;;;;;;;;;4991476;28;20098;-72
2022/02/09 12:52:12;;;;;;;8.37;3.50;;;;;;;;;;4997264;28;20629;-70
2022/02/09 12:54:37;;;;;;;6.80;3.40;;;;;;;;;;5004608;28;20458;-72
2022/02/09 12:57:03;;;;;;;4.90;3.40;;;;;;;;;;4991635;28;20156;-73
2022/02/09 12:59:28;;;;;;;7.65;3.90;;;;;;;;;;4991909;28;20448;-71
2022/02/09 13:01:54;;;;;;;8.17;4.43;;;;;;;;;;4997593;28;20177;-70
2022/02/09 13:04:35;;;;;;;7.50;4.07;;;;;;;;;;4995677;28;20500;-71
2022/02/09 13:07:04;;;;;;;5.90;3.47;;;;;;;;;;4994954;28;20336;-73
2022/02/09 13:09:30;;;;;;;7.03;3.67;;;;;;;;;;4998893;28;20103;-72
2022/02/09 13:11:55;;;;;;;7.30;4.20;;;;;;;;;;5007189;28;20156;-75
2022/02/09 13:14:41;;;;;;;6.20;3.75;;;;;;;;;;5005460;28;20145;-73
2022/02/09 13:53:49;;;;;;;5.95;3.05;;;;;;;;;;4960527;28;20075;-72
2022/02/09 14:04:58;;;;;;;5.57;2.85;;;;;;;;;;4979038;28;20141;-73
2022/02/09 14:12:39;;;;;;;5.65;2.38;;;;;;;;;;5002104;28;20404;-73
2022/02/09 14:18:28;;;;;;;10.27;3.00;;;;;;;;;;4994123;28;20101;-74
2022/02/09 14:57:23;;;;;;;4.40;2.03;;;;;;;;;;4994893;28;20106;-73
2022/02/09 15:00:12;;;;;;;6.45;2.25;;;;;;;;;;4992084;28;20102;-73
2022/02/09 15:07:47;;;;;;;4.87;2.20;;;;;;;;;;4995363;28;20104;-73
2022/02/09 15:10:21;;;;;;;6.40;2.30;;;;;;;;;;4999888;28;20109;-73
2022/02/09 15:12:58;;;;;;;5.03;2.17;;;;;;;;;;5001534;28;20070;-72
2022/02/09 15:19:02;;;;;;;5.30;2.20;;;;;;;;;;4993565;28;20094;-71
2022/02/09 15:23:08;;;;;;;4.55;2.10;;;;;;;;;;4994566;28;20349;-72
2022/02/09 15:25:34;;;;;;;4.40;2.05;;;;;;;;;;4990134;28;20530;-73
2022/02/09 15:28:01;;;;;;;2.40;1.88;;;;;;;;;;4986564;28;20089;-73
2022/02/09 15:30:29;;;;;;;6.07;2.53;;;;;;;;;;4991682;28;20098;-73
2022/02/09 15:32:57;;;;;;;3.57;2.40;;;;;;;;;;4992869;28;20169;-72
2022/02/09 15:37:59;;;;;;;10.02;2.47;;;;;;;;;;4987438;28;20104;-73
2022/02/09 15:40:37;;;;;;;2.80;1.88;;;;;;;;;;5001078;28;20551;-73
2022/02/09 15:56:57;;;;;;;4.28;2.60;;;;;;;;;;4990859;28;20167;-72
2022/02/09 16:10:14;;;;;;;5.25;2.13;;;;;;;;;;4995031;28;20370;-74
2022/02/09 16:26:19;;;;;;;5.28;2.03;;;;;;;;;;4991189;28;20487;-73
2022/02/09 16:46:57;;;;;;;4.37;2.40;;;;;;;;;;4996059;28;20192;-73
2022/02/09 16:49:31;;;;;;;4.90;2.20;;;;;;;;;;4990657;28;20098;-72
2022/02/09 16:52:10;;;;;;;4.78;2.25;;;;;;;;;;4991228;28;20231;-74
2022/02/09 16:54:48;;;;;;;4.60;2.30;;;;;;;;;;4982610;28;20109;-73
2022/02/09 17:21:10;;;;;;;4.55;2.30;;;;;;;;;;4996924;28;20113;-74
2022/02/09 17:23:36;;;;;;;5.13;2.33;;;;;;;;;;4991149;28;20074;-75
2022/02/09 17:26:01;;;;;;;6.63;2.60;;;;;;;;;;4990211;28;20584;-73
2022/02/09 17:28:27;;;;;;;4.65;2.30;;;;;;;;;;4997349;28;20127;-73
2022/02/09 17:31:04;;;;;;;5.30;2.22;;;;;;;;;;4996612;28;20101;-72
2022/02/09 17:34:32;;;;;;;4.15;2.22;;;;;;;;;;4995346;28;20171;-74
2022/02/09 17:36:44;;;;;;;3.92;2.20;;;;;;;;;;4992441;28;20220;-74
2022/02/09 17:58:50;;;;;;;7.22;3.35;;;;;;;;;;4993656;28;20106;-74
2022/02/09 18:00:48;;;;;;;8.10;3.65;;;;;;;;;;4984770;28;20103;-74
2022/02/09 18:03:15;;;;;;;8.75;3.90;;;;;;;;;;4995733;28;20069;-73
2022/02/09 18:05:52;;;;;;;11.35;5.80;;;;;;;;;;4988972;28;20182;-72
2022/02/09 18:08:37;;;;;;;11.98;5.50;;;;;;;;;;4995245;28;20074;-72
2022/02/09 18:30:00;;;;;;;18.77;10.73;;;;;;;;;;4995847;28;20565;-73
2022/02/09 18:32:55;;;;;;;17.02;8.27;;;;;;;;;;4994809;28;20090;-73
2022/02/09 18:56:54;;;;;;;13.98;8.57;;;;;;;;;;4965829;28;20515;-72
2022/02/09 19:03:06;;;;;;;11.70;7.45;;;;;;;;;;4999896;28;20502;-74
2022/02/09 19:05:39;;;;;;;10.35;6.82;;;;;;;;;;5016083;28;20477;-72
2022/02/09 19:31:48;;;;;;;6.88;4.88;;;;;;;;;;5021182;28;20115;-73
2022/02/09 19:47:28;;;;;;;8.03;4.50;;;;;;;;;;5021279;28;20078;-73
2022/02/09 19:50:28;;;;;;;8.68;4.70;;;;;;;;;;5019477;28;20570;-73
2022/02/09 19:55:36;;;;;;;8.13;4.78;;;;;;;;;;5021277;28;20090;-75
2022/02/09 19:58:02;;;;;;;17.02;9.02;;;;;;;;;;5021982;28;20105;-75
2022/02/09 20:00:30;;;;;;;20.95;11.60;;;;;;;;;;5024656;28;20113;-74
2022/02/09 20:02:55;;;;;;;14.40;9.38;;;;;;;;;;5024610;28;20262;-73
2022/02/09 20:05:22;;;;;;;14.70;7.60;;;;;;;;;;5021915;28;20113;-74
2022/02/09 20:07:48;;;;;;;13.68;6.53;;;;;;;;;;5021960;28;20823;-72
2022/02/09 20:10:13;;;;;;;9.30;5.67;;;;;;;;;;5019317;28;20190;-74
2022/02/09 20:12:39;;;;;;;8.63;5.20;;;;;;;;;;5004708;28;20074;-73
2022/02/09 20:15:04;;;;;;;6.65;4.60;;;;;;;;;;4971879;28;20107;-75
2022/02/09 20:17:29;;;;;;;7.75;4.25;;;;;;;;;;4973270;28;20118;-73
2022/02/09 20:19:57;;;;;;;7.77;5.03;;;;;;;;;;4972390;28;20133;-74
2022/02/09 20:22:22;;;;;;;8.35;4.50;;;;;;;;;;5010082;28;20196;-72
2022/02/09 20:24:48;;;;;;;7.77;4.30;;;;;;;;;;5024221;28;20094;-73
2022/02/09 20:27:18;;;;;;;9.90;5.53;;;;;;;;;;5024205;28;20336;-73
2022/02/09 20:29:43;;;;;;;6.60;4.60;;;;;;;;;;5023778;28;20192;-72
2022/02/09 20:32:17;;;;;;;10.15;5.30;;;;;;;;;;5024383;28;20168;-73
2022/02/09 20:35:17;;;;;;;10.07;5.85;;;;;;;;;;5024320;28;20101;-74
2022/02/09 20:37:40;;;;;;;11.98;5.68;;;;;;;;;;5020723;28;20610;-74
2022/02/09 20:42:31;;;;;;;6.60;4.38;;;;;;;;;;5019433;28;20104;-72
2022/02/09 20:45:02;;;;;;;8.52;5.20;;;;;;;;;;5023756;28;20085;-73
2022/02/09 20:47:29;;;;;;;11.27;6.00;;;;;;;;;;5024016;28;20523;-71
2022/02/09 20:49:54;;;;;;;6.10;4.03;;;;;;;;;;5023666;28;20105;-72
2022/02/09 20:52:20;;;;;;;7.13;4.33;;;;;;;;;;5023839;28;20101;-74
2022/02/09 20:54:45;;;;;;;7.07;4.75;;;;;;;;;;5022115;28;20117;-74
2022/02/09 20:57:10;;;;;;;9.07;5.30;;;;;;;;;;5023509;28;20117;-73
2022/02/09 20:59:41;;;;;;;6.40;4.10;;;;;;;;;;5023886;28;20715;-74
2022/02/09 21:04:56;;;;;;;6.10;3.92;;;;;;;;;;4990221;28;20089;-72
2022/02/09 21:07:36;;;;;;;;;;;;;;;;;;5024224;28;20074;-71
2022/02/09 21:10:23;;;;;;;5.78;3.75;;;;;;;;;;5014379;28;19981;-72
2022/02/09 21:12:55;;;;;;;7.13;4.10;;;;;;;;;;4996608;28;20085;-73
2022/02/09 21:15:40;;;;;;;7.60;4.15;;;;;;;;;;4987342;28;20580;-73
2022/02/09 21:18:28;;;;;;;6.65;3.53;;;;;;;;;;4997801;28;20098;-72
2022/02/09 21:21:15;;;;;;;8.18;4.00;;;;;;;;;;5003562;28;20342;-73
2022/02/09 21:52:07;;;;;;;8.65;3.20;;;;;;;;;;5022333;28;20510;-73
2022/02/09 22:16:23;;;;;;;6.53;3.20;;;;;;;;;;5002389;28;20073;-65
2022/02/09 22:24:24;;;;;;;5.90;3.38;;;;;;;;;;5021877;28;20183;-65
2022/02/09 22:29:04;;;;;;;7.88;3.38;;;;;;;;;;5008241;28;20454;-65
2022/02/09 22:31:49;;;;;;;4.97;3.10;;;;;;;;;;5011734;28;20108;-66
2022/02/09 22:55:16;;;;;;;7.03;3.73;;;;;;;;;;5016225;28;20364;-65
2022/02/09 23:00:14;;;;;;;6.43;4.07;;;;;;;;;;5017298;28;20166;-65
2022/02/09 23:02:44;;;;;;;8.90;4.30;;;;;;;;;;5016550;28;20110;-66
2022/02/09 23:10:20;;;;;;;6.80;3.85;;;;;;;;;;5011085;28;20344;-66
2022/02/09 23:12:59;;;;;;;6.82;3.90;;;;;;;;;;4998013;28;20171;-64
2022/02/09 23:18:33;;;;;;;5.57;3.33;;;;;;;;;;5000623;28;20025;-65
2022/02/09 23:23:51;;;;;;;6.55;3.88;;;;;;;;;;5016125;28;20574;-65
